Time;durP1;ratioP1;P1;durP2;ratioP2;P2;SDS_P1;SDS_P2;PMS_P1;PMS_P2;Temp;Humidity;BMP_temperature;BMP_pressure;BME280_temperature;BME280_humidity;BME280_pressure;Samples;Min_cycle;Max_cycle;Signal;HPM_P1;HPM_P2
2022/07/23 00:01:24;;;;;;;4.45;3.90;;;;;;;17.62;74.39;101620.19;3599525;39;20075;-60
2022/07/23 00:03:51;;;;;;;6.32;4.30;;;;;;;17.62;73.76;101620.19;3598814;39;20091;-61
2022/07/23 00:06:17;;;;;;;6.78;3.97;;;;;;;17.28;74.43;101573.91;3599311;39;20055;-61
2022/07/23 00:08:43;;;;;;;7.13;4.00;;;;;;;17.63;74.33;101628.25;3596496;39;20051;-61
2022/07/23 00:11:09;;;;;;;5.47;4.18;;;;;;;17.61;73.76;101626.63;3599746;39;20063;-61
2022/07/23 00:13:34;;;;;;;5.60;4.07;;;;;;;17.60;73.62;101628.50;3598455;39;20227;-60
2022/07/23 00:16:00;;;;;;;4.97;4.10;;;;;;;17.55;74.69;101613.50;3600052;39;20302;-61
2022/07/23 00:18:25;;;;;;;6.82;4.50;;;;;;;17.57;74.47;101620.56;3598294;39;20066;-61
2022/07/23 00:20:51;;;;;;;4.75;4.10;;;;;;;17.53;74.64;101621.78;3599964;39;20073;-60
2022/07/23 00:23:17;;;;;;;7.80;4.13;;;;;;;17.53;73.93;101620.91;3598511;39;20055;-61
2022/07/23 00:25:42;;;;;;;7.63;4.00;;;;;;;17.50;73.62;101627.44;3599189;39;20299;-61
2022/07/23 00:28:08;;;;;;;5.35;4.47;;;;;;;17.16;74.74;101575.75;3598776;39;20061;-61
2022/07/23 00:30:34;;;;;;;4.70;4.10;;;;;;;17.37;74.42;101605.81;3599518;39;20075;-61
2022/07/23 00:33:05;;;;;;;4.20;3.80;;;;;;;17.43;74.29;101615.34;3598568;39;20062;-61
2022/07/23 00:35:35;;;;;;;7.57;4.30;;;;;;;17.42;74.69;101624.50;3597746;39;20051;-61
2022/07/23 00:38:03;;;;;;;4.47;4.07;;;;;;;15.94;74.26;101370.69;3597604;39;20047;-61
2022/07/23 00:40:30;;;;;;;4.70;4.20;;;;;;;17.35;74.28;101618.66;3599695;39;20406;-61
2022/07/23 00:42:57;;;;;;;5.28;4.30;;;;;;;17.32;74.11;101613.47;3597618;39;20474;-61
2022/07/23 00:45:22;;;;;;;7.38;3.97;;;;;;;17.30;73.46;101615.44;3597195;39;20068;-61
2022/07/23 00:47:48;;;;;;;5.72;4.20;;;;;;;17.27;74.31;101612.94;3599563;39;20067;-58
2022/07/23 00:50:14;;;;;;;6.13;4.15;;;;;;;17.11;74.88;101598.81;3598576;39;20059;-58
2022/07/23 00:52:41;;;;;;;6.43;4.22;;;;;;;17.18;75.39;101619.09;3598770;39;20136;-58
2022/07/23 00:55:09;;;;;;;5.20;4.07;;;;;;;17.15;75.11;101619.31;3598801;39;20116;-58
2022/07/23 00:57:37;;;;;;;4.80;4.30;;;;;;;17.12;75.61;101614.13;3598268;39;20063;-59
2022/07/23 01:00:06;;;;;;;5.55;3.90;;;;;;;17.09;76.05;101617.06;3597508;39;20574;-58
2022/07/23 01:02:33;;;;;;;6.85;4.10;;;;;;;16.73;75.27;101561.84;3598117;39;20290;-59
2022/07/23 01:04:59;;;;;;;7.70;3.97;;;;;;;17.05;75.00;101611.03;3600184;39;20043;-59
2022/07/23 01:07:25;;;;;;;8.15;4.22;;;;;;;16.96;75.18;101606.28;3597397;39;20074;-58
2022/07/23 01:09:52;;;;;;;5.90;3.70;;;;;;;16.68;75.11;101558.59;3599324;39;20047;-59
2022/07/23 01:12:18;;;;;;;5.40;4.53;;;;;;;17.00;75.54;101618.66;3597618;39;20091;-59
2022/07/23 01:14:43;;;;;;;5.47;4.65;;;;;;;16.95;75.40;101615.44;3598018;39;20048;-58
2022/07/23 01:17:09;;;;;;;6.22;4.70;;;;;;;16.90;75.85;101610.34;3598078;39;20350;-58
2022/07/23 01:19:35;;;;;;;5.80;4.72;;;;;;;16.85;75.77;101608.97;3596167;39;20048;-58
2022/07/23 01:22:04;;;;;;;7.25;4.50;;;;;;;16.62;76.59;101568.09;3591738;39;20067;-58
2022/07/23 01:24:29;;;;;;;8.00;5.43;;;;;;;16.72;76.72;101603.56;3591988;39;20063;-58
2022/07/23 01:26:55;;;;;;;11.00;4.93;;;;;;;16.53;76.68;101576.94;3593097;39;20062;-58
2022/07/23 01:29:21;;;;;;;7.13;4.93;;;;;;;16.41;76.47;101562.44;3592349;39;20062;-58
2022/07/23 01:31:48;;;;;;;6.35;4.70;;;;;;;16.70;77.56;101610.94;3592460;39;20052;-59
2022/07/23 01:34:13;;;;;;;6.72;4.38;;;;;;;16.65;77.05;101605.88;3590844;39;20056;-59
2022/07/23 01:36:40;;;;;;;5.32;4.60;;;;;;;16.51;76.97;101586.16;3591793;39;20059;-59
2022/07/23 01:39:07;;;;;;;6.38;4.78;;;;;;;16.52;76.73;101579.75;3591169;39;20772;-58
2022/07/23 01:41:34;;;;;;;5.22;4.75;;;;;;;16.48;76.81;101585.41;3590774;39;20055;-58
2022/07/23 01:44:00;;;;;;;8.43;4.85;;;;;;;16.55;77.47;101599.38;3591076;39;20063;-58
2022/07/23 01:46:26;;;;;;;7.60;5.50;;;;;;;16.50;77.55;101592.59;3590130;39;20123;-59
2022/07/23 01:48:52;;;;;;;9.27;4.70;;;;;;;16.50;77.60;101598.00;3591193;39;20049;-58
2022/07/23 01:51:17;;;;;;;6.93;4.70;;;;;;;16.45;78.27;101596.50;3589581;39;20059;-58
2022/07/23 01:53:43;;;;;;;6.47;4.88;;;;;;;16.45;77.42;101591.06;3592352;39;20067;-59
2022/07/23 01:56:09;;;;;;;5.07;4.57;;;;;;;16.45;77.56;101599.19;3592998;39;20099;-59
2022/07/23 01:58:34;;;;;;;6.68;4.82;;;;;;;16.44;77.67;101597.47;3591589;39;20044;-58
2022/07/23 02:01:00;;;;;;;7.25;5.13;;;;;;;16.38;77.68;101597.94;3591231;39;20082;-58
2022/07/23 02:03:26;;;;;;;8.15;5.15;;;;;;;16.31;78.19;101582.22;3589166;39;20067;-59
2022/07/23 02:05:52;;;;;;;9.85;5.07;;;;;;;16.33;77.68;101591.09;3592034;39;20063;-59
2022/07/23 02:08:18;;;;;;;7.25;5.25;;;;;;;16.29;77.69;101586.91;3591693;39;20055;-58
2022/07/23 02:10:45;;;;;;;6.07;5.00;;;;;;;16.28;78.01;101588.75;3593334;39;20070;-59
2022/07/23 02:13:11;;;;;;;5.63;4.53;;;;;;;16.27;77.74;101588.84;3593261;39;20062;-58
2022/07/23 02:15:37;;;;;;;6.53;4.95;;;;;;;16.24;77.22;101585.41;3591488;39;20063;-59
2022/07/23 02:18:03;;;;;;;6.30;5.10;;;;;;;16.24;77.48;101585.41;3592538;39;20070;-58
2022/07/23 02:20:29;;;;;;;7.40;5.28;;;;;;;16.20;77.65;101586.56;3592675;39;20378;-58
2022/07/23 02:22:54;;;;;;;8.00;5.07;;;;;;;16.19;78.39;101592.13;3593986;39;20058;-58
2022/07/23 02:25:20;;;;;;;7.70;5.63;;;;;;;16.18;77.79;101587.69;3592603;39;20066;-58
2022/07/23 02:27:46;;;;;;;7.20;5.40;;;;;;;16.18;78.00;101590.41;3592981;39;20152;-58
2022/07/23 02:30:11;;;;;;;5.13;4.72;;;;;;;16.15;78.00;101582.50;3593044;39;20058;-59
2022/07/23 02:32:39;;;;;;;6.60;5.22;;;;;;;16.16;77.74;101589.66;3593851;39;20080;-59
2022/07/23 02:35:06;;;;;;;6.60;5.40;;;;;;;16.15;77.75;101577.94;3594110;39;20060;-59
2022/07/23 02:37:33;;;;;;;7.72;5.22;;;;;;;16.11;77.34;101570.13;3592451;39;20086;-59
2022/07/23 02:39:58;;;;;;;5.85;5.35;;;;;;;16.13;78.04;101582.59;3594925;39;20051;-59
2022/07/23 02:42:24;;;;;;;6.35;5.72;;;;;;;16.07;78.12;101576.75;3593574;39;20128;-59
2022/07/23 02:44:52;;;;;;;7.50;5.70;;;;;;;16.04;78.25;101585.09;3593498;39;20465;-59
2022/07/23 02:47:18;;;;;;;9.25;5.50;;;;;;;15.98;79.03;101587.31;3592915;39;20063;-59
2022/07/23 02:49:43;;;;;;;8.75;5.90;;;;;;;15.91;78.91;101580.56;3593053;39;20070;-59
2022/07/23 02:52:12;;;;;;;7.57;5.60;;;;;;;15.93;78.59;101594.91;3594035;39;20337;-59
2022/07/23 02:54:38;;;;;;;7.35;6.10;;;;;;;15.23;79.03;101481.53;3594057;39;20060;-59
2022/07/23 02:57:05;;;;;;;8.73;6.20;;;;;;;15.91;78.85;101591.41;3593736;39;21306;-59
2022/07/23 02:59:30;;;;;;;7.78;6.22;;;;;;;15.88;79.28;101597.06;3591697;39;20079;-59
2022/07/23 03:01:56;;;;;;;8.05;6.28;;;;;;;15.87;79.21;101597.19;3592809;39;20051;-59
2022/07/23 03:04:22;;;;;;;8.07;6.68;;;;;;;15.86;79.08;101592.72;3591788;39;20364;-59
2022/07/23 03:06:47;;;;;;;10.73;6.65;;;;;;;15.83;79.19;101592.97;3591863;39;20083;-60
2022/07/23 03:09:13;;;;;;;7.68;6.30;;;;;;;15.78;79.39;101602.28;3594062;39;20067;-60
2022/07/23 03:11:38;;;;;;;8.25;6.38;;;;;;;15.76;79.05;101595.22;3591358;39;20374;-60
2022/07/23 03:14:04;;;;;;;7.75;6.75;;;;;;;15.74;79.14;101600.78;3593414;39;20077;-60
2022/07/23 03:16:30;;;;;;;7.95;6.18;;;;;;;15.73;79.35;101596.34;3590554;39;20066;-59
2022/07/23 03:18:55;;;;;;;8.48;6.60;;;;;;;15.72;78.83;101599.13;3592372;39;20148;-60
2022/07/23 03:21:21;;;;;;;7.68;6.88;;;;;;;15.70;79.50;101604.69;3590885;39;20054;-60
2022/07/23 03:23:46;;;;;;;9.68;7.30;;;;;;;15.67;79.38;101601.34;3591361;39;20056;-60
2022/07/23 03:26:12;;;;;;;7.80;6.90;;;;;;;15.68;79.27;101600.34;3592407;39;20473;-60
2022/07/23 03:28:37;;;;;;;7.20;6.50;;;;;;;15.67;79.49;101609.47;3590379;39;20055;-60
2022/07/23 03:31:03;;;;;;;8.35;7.15;;;;;;;15.68;79.54;101612.03;3590525;39;20051;-60
2022/07/23 03:33:28;;;;;;;11.45;7.13;;;;;;;15.68;79.29;101606.63;3592349;39;20649;-60
2022/07/23 03:35:54;;;;;;;9.23;7.30;;;;;;;15.71;79.10;101613.69;3592586;39;20075;-60
2022/07/23 03:38:20;;;;;;;12.70;7.75;;;;;;;15.68;79.20;101616.59;3592202;39;20078;-60
2022/07/23 03:40:45;;;;;;;9.00;8.02;;;;;;;15.66;78.92;101611.25;3590090;39;20059;-60
2022/07/23 03:43:11;;;;;;;8.63;7.72;;;;;;;15.65;78.96;101616.78;3592220;39;20055;-60
2022/07/23 03:45:36;;;;;;;18.70;14.88;;;;;;;15.65;78.79;101614.06;3592801;39;20062;-60
2022/07/23 03:48:02;;;;;;;12.23;10.30;;;;;;;15.62;79.70;101612.44;3594953;39;20082;-60
2022/07/23 03:50:28;;;;;;;10.80;8.93;;;;;;;15.64;79.05;101617.78;3592386;39;20411;-60
2022/07/23 03:52:53;;;;;;;9.60;8.60;;;;;;;15.61;78.88;101609.84;3593418;39;20072;-60
2022/07/23 03:55:19;;;;;;;10.10;8.18;;;;;;;15.63;79.07;101610.59;3593792;39;20075;-61
2022/07/23 03:57:45;;;;;;;10.18;8.93;;;;;;;15.63;78.96;101610.59;3590233;39;20052;-60
2022/07/23 04:00:13;;;;;;;10.10;8.73;;;;;;;15.62;79.25;101609.72;3592413;39;20059;-60
2022/07/23 04:02:39;;;;;;;13.50;8.77;;;;;;;15.61;78.94;101615.28;3594976;39;20059;-60
2022/07/23 04:05:06;;;;;;;10.63;8.45;;;;;;;15.56;79.08;101613.72;3597639;39;20124;-60
2022/07/23 04:07:32;;;;;;;9.93;8.77;;;;;;;15.55;79.68;101612.00;3596094;39;20059;-61
2022/07/23 04:09:57;;;;;;;14.00;9.48;;;;;;;15.53;79.85;101618.50;3594484;39;20128;-60
2022/07/23 04:12:24;;;;;;;15.27;10.27;;;;;;;15.51;80.29;101621.34;3593872;39;20079;-60
2022/07/23 04:14:49;;;;;;;11.20;9.00;;;;;;;15.50;79.78;101622.28;3592601;39;20063;-60
2022/07/23 04:17:15;;;;;;;11.38;9.68;;;;;;;15.44;79.76;101617.31;3592608;39;20181;-60
2022/07/23 04:19:43;;;;;;;10.40;8.35;;;;;;;15.44;79.82;101622.72;3595033;39;20062;-59
2022/07/23 04:22:10;;;;;;;9.85;8.75;;;;;;;15.42;79.92;101627.41;3593436;39;20062;-60
2022/07/23 04:24:36;;;;;;;11.45;8.63;;;;;;;15.44;80.03;101630.84;3593299;39;20142;-59
2022/07/23 04:27:02;;;;;;;10.68;8.77;;;;;;;15.45;79.94;101638.03;3594372;39;20043;-61
2022/07/23 04:29:28;;;;;;;10.50;9.40;;;;;;;15.48;79.83;101643.22;3594178;39;20326;-59
2022/07/23 04:31:53;;;;;;;11.25;9.10;;;;;;;15.49;79.22;101638.69;3593780;39;20055;-59
2022/07/23 04:34:19;;;;;;;11.32;9.68;;;;;;;15.48;79.67;101640.53;3593323;39;20054;-59
2022/07/23 04:36:45;;;;;;;11.65;10.13;;;;;;;15.49;79.71;101638.69;3593321;39;20071;-59
2022/07/23 04:39:11;;;;;;;11.95;10.75;;;;;;;15.55;79.03;101644.53;3594377;39;20067;-59
2022/07/23 04:41:36;;;;;;;14.95;10.50;;;;;;;15.62;80.04;101639.56;3591344;39;20067;-60
2022/07/23 04:44:03;;;;;;;12.30;10.50;;;;;;;15.58;79.18;101621.78;3593772;39;20052;-59
2022/07/23 04:46:29;;;;;;;12.95;10.73;;;;;;;15.66;79.26;101641.06;3595356;39;20136;-59
2022/07/23 04:48:55;;;;;;;13.93;10.75;;;;;;;15.70;79.27;101652.63;3596472;39;20460;-59
2022/07/23 04:51:20;;;;;;;13.75;11.23;;;;;;;15.69;78.89;101651.72;3593063;39;20146;-59
2022/07/23 04:53:46;;;;;;;13.18;11.20;;;;;;;15.69;79.22;101653.56;3595616;39;20074;-59
2022/07/23 04:56:12;;;;;;;14.77;11.15;;;;;;;15.72;79.88;101656.06;3594000;39;20063;-58
2022/07/23 04:58:38;;;;;;;12.23;10.85;;;;;;;15.72;79.01;101661.47;3593383;39;20059;-59
2022/07/23 05:01:04;;;;;;;11.70;10.45;;;;;;;15.83;79.11;101660.75;3592595;39;20133;-60
2022/07/23 05:03:30;;;;;;;11.90;10.70;;;;;;;15.86;78.86;101652.38;3593354;39;20051;-59
2022/07/23 05:05:56;;;;;;;12.30;10.38;;;;;;;15.86;79.06;101664.09;3594946;39;20066;-59
2022/07/23 05:08:22;;;;;;;11.23;10.07;;;;;;;15.91;78.64;101656.50;3595544;39;20677;-59
2022/07/23 05:10:47;;;;;;;12.63;10.35;;;;;;;15.93;78.66;101657.25;3593017;39;20317;-60
2022/07/23 05:13:16;;;;;;;14.52;10.77;;;;;;;15.90;78.53;101646.63;3593290;39;20055;-59
2022/07/23 05:15:43;;;;;;;13.23;10.50;;;;;;;16.00;77.97;101655.84;3592617;39;20070;-59
2022/07/23 05:18:08;;;;;;;11.50;10.30;;;;;;;16.08;78.49;101663.44;3593398;39;20055;-59
2022/07/23 05:20:34;;;;;;;13.23;10.75;;;;;;;16.09;78.54;101656.19;3594663;39;20061;-62
2022/07/23 05:23:00;;;;;;;10.48;9.45;;;;;;;15.97;77.90;101628.94;3593258;39;20067;-59
2022/07/23 05:25:25;;;;;;;11.98;10.75;;;;;;;15.45;78.02;101534.19;3591997;39;20059;-59
2022/07/23 05:27:51;;;;;;;11.73;10.32;;;;;;;16.19;78.10;101659.94;3592345;39;20063;-59
2022/07/23 05:30:17;;;;;;;12.30;10.75;;;;;;;16.22;78.26;101676.00;3594237;39;20079;-59
2022/07/23 05:32:42;;;;;;;11.93;10.00;;;;;;;16.20;77.66;101667.97;3591915;39;20060;-59
2022/07/23 05:35:08;;;;;;;12.35;10.18;;;;;;;16.24;77.45;101666.78;3592619;39;20059;-59
2022/07/23 05:37:34;;;;;;;14.52;10.43;;;;;;;16.16;77.94;101638.47;3593613;39;20118;-59
2022/07/23 05:40:03;;;;;;;15.20;10.98;;;;;;;16.36;77.56;101675.84;3592997;39;20424;-59
2022/07/23 05:42:28;;;;;;;11.02;9.82;;;;;;;16.33;77.35;101659.81;3592250;39;20050;-59
2022/07/23 05:44:54;;;;;;;10.93;9.82;;;;;;;16.45;77.73;101675.19;3593305;39;20128;-60
2022/07/23 05:47:19;;;;;;;14.18;9.82;;;;;;;16.49;76.99;101670.41;3594792;39;20051;-60
2022/07/23 05:49:45;;;;;;;10.68;9.63;;;;;;;16.53;77.60;101676.50;3591120;39;20059;-60
2022/07/23 05:52:11;;;;;;;11.02;9.30;;;;;;;16.58;76.87;101683.31;3592053;39;20051;-60
2022/07/23 05:54:36;;;;;;;12.70;8.73;;;;;;;16.63;76.29;101681.13;3592493;39;20067;-60
2022/07/23 05:57:03;;;;;;;11.55;9.30;;;;;;;16.62;76.46;101678.53;3591922;39;20059;-60
2022/07/23 05:59:30;;;;;;;9.02;8.13;;;;;;;16.77;76.76;101693.72;3590302;39;20054;-60
2022/07/23 06:01:55;;;;;;;9.50;7.70;;;;;;;16.84;75.70;101695.00;3590882;39;20051;-60
2022/07/23 06:04:21;;;;;;;10.93;8.02;;;;;;;16.94;75.56;101695.19;3593169;39;20055;-60
2022/07/23 06:06:46;;;;;;;11.23;8.10;;;;;;;17.03;75.73;101699.94;3592173;39;20055;-60
2022/07/23 06:09:13;;;;;;;11.65;8.38;;;;;;;17.03;75.08;101691.78;3592041;39;20418;-61
2022/07/23 06:11:40;;;;;;;8.50;7.63;;;;;;;17.18;74.54;101704.19;3592346;39;20091;-60
2022/07/23 06:14:06;;;;;;;8.68;7.90;;;;;;;17.28;74.21;101701.63;3580285;39;20426;-60
2022/07/23 06:16:32;;;;;;;10.32;8.05;;;;;;;17.36;73.44;101701.94;3588506;39;20128;-60
2022/07/23 06:18:58;;;;;;;8.30;7.50;;;;;;;17.40;73.14;101705.28;3593975;39;20046;-61
2022/07/23 06:21:24;;;;;;;9.18;7.70;;;;;;;17.49;73.36;101704.56;3591841;39;20059;-61
2022/07/23 06:23:50;;;;;;;8.32;7.03;;;;;;;17.61;73.33;101700.03;3581334;39;20063;-62
2022/07/23 06:26:16;;;;;;;9.95;7.22;;;;;;;17.74;72.17;101700.81;3590133;39;20106;-63
2022/07/23 06:28:41;;;;;;;9.35;7.50;;;;;;;17.87;72.38;101700.75;3587918;39;20412;-63
2022/07/23 06:31:07;;;;;;;7.57;5.88;;;;;;;17.99;70.43;101694.34;3583514;39;20062;-63
2022/07/23 06:33:33;;;;;;;12.75;6.32;;;;;;;18.11;70.29;101697.94;3592549;39;20133;-64
2022/07/23 06:35:59;;;;;;;7.05;5.95;;;;;;;18.20;70.34;101713.53;3588420;39;20043;-65
2022/07/23 06:38:25;;;;;;;8.90;6.45;;;;;;;18.31;69.36;101708.09;3593775;39;20062;-65
2022/07/23 06:40:51;;;;;;;8.48;6.07;;;;;;;18.38;69.95;101700.28;3590150;39;20056;-64
2022/07/23 06:43:16;;;;;;;9.13;6.20;;;;;;;18.61;69.28;101706.59;3594342;39;20310;-65
2022/07/23 06:45:42;;;;;;;6.07;5.47;;;;;;;18.64;67.61;101690.00;3596215;39;20063;-65
2022/07/23 06:48:07;;;;;;;7.63;5.88;;;;;;;18.91;67.79;101707.81;3591643;39;20103;-65
2022/07/23 06:50:34;;;;;;;7.25;4.97;;;;;;;19.08;65.88;101715.44;3593433;39;20058;-65
2022/07/23 06:53:00;;;;;;;7.18;5.82;;;;;;;19.23;66.83;101721.47;3593203;39;20096;-64
2022/07/23 06:55:25;;;;;;;6.47;5.05;;;;;;;19.39;65.30;101721.03;3580238;39;20055;-64
2022/07/23 06:57:51;;;;;;;5.75;5.00;;;;;;;19.51;63.80;101717.28;3590368;39;20066;-64
2022/07/23 07:00:16;;;;;;;5.38;4.53;;;;;;;19.64;64.32;101709.81;3593263;39;20051;-64
2022/07/23 07:02:42;;;;;;;4.30;3.90;;;;;;;19.80;63.10;101716.66;3594313;39;20070;-65
2022/07/23 07:05:08;;;;;;;5.85;3.97;;;;;;;19.86;61.13;101710.69;3589660;39;20733;-65
2022/07/23 07:07:35;;;;;;;5.75;3.58;;;;;;;19.92;62.27;101713.72;3581592;39;20055;-64
2022/07/23 07:10:04;;;;;;;4.70;4.00;;;;;;;20.03;61.68;101704.59;3593137;39;20582;-64
2022/07/23 07:12:30;;;;;;;5.30;4.20;;;;;;;20.13;61.32;101712.81;3591698;39;20085;-64
2022/07/23 07:14:56;;;;;;;5.65;3.85;;;;;;;20.24;60.46;101709.16;3590445;39;20559;-64
2022/07/23 07:17:22;;;;;;;5.97;4.35;;;;;;;20.33;61.52;101703.75;3592037;39;20055;-64
2022/07/23 07:19:48;;;;;;;6.38;3.92;;;;;;;20.48;59.92;101712.41;3590983;39;20101;-63
2022/07/23 07:22:13;;;;;;;5.55;3.65;;;;;;;20.60;60.52;101710.50;3593360;39;20066;-64
2022/07/23 07:24:39;;;;;;;4.30;3.58;;;;;;;20.62;58.61;101714.81;3593710;39;20073;-63
2022/07/23 07:27:05;;;;;;;5.43;3.55;;;;;;;20.74;58.18;101715.59;3593999;39;20713;-63
2022/07/23 07:29:31;;;;;;;4.50;3.70;;;;;;;20.83;58.23;101725.66;3594359;39;20047;-63
2022/07/23 07:31:56;;;;;;;5.05;3.53;;;;;;;20.91;57.65;101724.09;3594103;39;20051;-63
2022/07/23 07:34:22;;;;;;;4.35;3.70;;;;;;;21.07;57.20;101722.56;3582501;39;20055;-63
2022/07/23 07:36:48;;;;;;;6.43;4.07;;;;;;;21.08;57.68;101726.13;3592839;39;20067;-64
2022/07/23 07:39:14;;;;;;;4.22;3.83;;;;;;;21.24;57.97;101729.19;3590430;39;20059;-63
2022/07/23 07:41:39;;;;;;;6.15;4.03;;;;;;;21.35;57.48;101739.19;3591947;39;20087;-64
2022/07/23 07:44:05;;;;;;;5.10;4.15;;;;;;;21.43;56.06;101728.38;3591424;39;20067;-63
2022/07/23 07:46:31;;;;;;;4.45;4.05;;;;;;;21.49;55.38;101725.06;3594261;39;20059;-63
2022/07/23 07:48:56;;;;;;;6.13;3.85;;;;;;;21.47;56.48;101694.25;3591089;39;20674;-63
2022/07/23 07:51:22;;;;;;;7.10;4.13;;;;;;;21.78;55.54;101729.66;3594396;39;20398;-64
2022/07/23 07:53:47;;;;;;;7.22;4.07;;;;;;;21.79;54.30;101724.03;3591441;39;20070;-63
2022/07/23 07:56:13;;;;;;;5.07;3.90;;;;;;;21.92;53.89;101721.00;3594562;39;20489;-63
2022/07/23 07:58:39;;;;;;;5.95;4.10;;;;;;;21.69;52.62;101671.19;3590273;39;20074;-63
2022/07/23 08:01:04;;;;;;;4.20;3.70;;;;;;;22.10;51.87;101707.38;3592636;39;20911;-63
2022/07/23 08:03:30;;;;;;;6.45;3.95;;;;;;;22.31;53.39;101723.66;3592538;39;20055;-63
2022/07/23 08:05:56;;;;;;;6.72;4.70;;;;;;;22.53;53.31;101724.28;3592169;39;20296;-64
2022/07/23 08:08:21;;;;;;;9.65;5.10;;;;;;;22.68;53.10;101728.28;3593407;39;20481;-64
2022/07/23 08:10:47;;;;;;;6.05;4.85;;;;;;;22.77;53.21;101729.22;3594755;39;20066;-64
2022/07/23 08:13:15;;;;;;;6.38;4.95;;;;;;;22.88;51.91;101732.63;3594632;39;20370;-64
2022/07/23 08:15:44;;;;;;;7.28;5.18;;;;;;;22.99;51.37;101730.72;3593573;39;20055;-63
2022/07/23 08:18:10;;;;;;;7.60;4.43;;;;;;;22.69;51.85;101656.84;3593172;39;20145;-63
2022/07/23 08:20:36;;;;;;;4.65;3.97;;;;;;;23.26;51.60;101733.41;3590790;39;20055;-63
2022/07/23 08:23:08;;;;;;;6.30;4.60;;;;;;;23.30;49.03;101740.31;3590981;39;20075;-63
2022/07/23 08:25:38;;;;;;;6.70;4.30;;;;;;;23.38;48.79;101737.66;3591359;39;20488;-64
2022/07/23 08:28:11;;;;;;;4.93;4.30;;;;;;;23.47;47.74;101748.69;3590976;39;20059;-64
2022/07/23 08:30:40;;;;;;;4.90;4.30;;;;;;;23.52;49.69;101754.59;3590542;39;20059;-64
2022/07/23 08:33:13;;;;;;;6.03;4.18;;;;;;;23.63;48.35;101746.13;3591422;39;20059;-64
2022/07/23 08:35:46;;;;;;;6.07;3.78;;;;;;;23.74;48.70;101758.78;3592453;39;20173;-64
2022/07/23 08:38:16;;;;;;;4.35;3.60;;;;;;;23.75;47.18;101755.84;3594070;39;20082;-64
2022/07/23 08:40:46;;;;;;;5.22;4.05;;;;;;;23.85;47.83;101759.41;3592711;39;20068;-64
2022/07/23 08:43:17;;;;;;;6.20;3.60;;;;;;;23.99;47.35;101759.84;3594109;39;20067;-64
2022/07/23 08:45:47;;;;;;;3.90;3.03;;;;;;;24.22;47.21;101758.28;3590404;39;20077;-64
2022/07/23 08:48:16;;;;;;;4.85;3.03;;;;;;;24.26;47.21;101754.19;3590752;39;20054;-64
2022/07/23 08:50:48;;;;;;;5.65;3.13;;;;;;;24.41;45.98;101759.97;3591177;39;20067;-64
2022/07/23 08:53:17;;;;;;;4.07;3.17;;;;;;;24.70;45.65;101756.00;3592198;39;20149;-64
2022/07/23 08:55:53;;;;;;;3.97;3.50;;;;;;;24.95;44.93;101760.56;3591367;39;20071;-63
2022/07/23 08:58:20;;;;;;;6.15;3.58;;;;;;;25.05;45.04;101759.56;3594080;39;20055;-63
2022/07/23 09:00:48;;;;;;;5.30;3.65;;;;;;;25.21;44.71;101765.16;3592460;39;20055;-63
2022/07/23 09:03:21;;;;;;;3.40;3.10;;;;;;;25.29;45.04;101739.56;3593305;39;20059;-65
2022/07/23 09:05:50;;;;;;;4.93;3.78;;;;;;;25.43;44.96;101758.16;3592441;39;20416;-63
2022/07/23 09:08:21;;;;;;;6.38;3.70;;;;;;;25.38;43.41;101755.91;3590864;39;20912;-64
2022/07/23 09:10:59;;;;;;;4.85;3.65;;;;;;;25.32;42.95;101756.59;3581714;39;20598;-63
2022/07/23 09:13:43;;;;;;;3.50;3.20;;;;;;;25.25;44.77;101750.06;3590513;39;20059;-63
2022/07/23 09:16:39;;;;;;;3.70;3.40;;;;;;;25.43;42.42;101747.13;3591814;39;20061;-64
2022/07/23 09:19:07;;;;;;;8.32;3.67;;;;;;;25.63;42.99;101742.19;3582616;39;20381;-64
2022/07/23 09:21:36;;;;;;;6.22;3.22;;;;;;;25.68;43.58;101743.38;3590419;39;20050;-64
2022/07/23 09:24:14;;;;;;;3.53;3.22;;;;;;;25.76;44.17;101736.16;3591048;39;20056;-64
2022/07/23 09:26:49;;;;;;;5.32;3.72;;;;;;;25.67;43.82;101733.41;3592936;39;20064;-64
2022/07/23 09:29:25;;;;;;;5.28;3.20;;;;;;;25.64;44.00;101733.75;3590261;39;20062;-63
2022/07/23 09:32:05;;;;;;;5.68;3.80;;;;;;;25.85;42.68;101743.44;3594119;39;20144;-64
2022/07/23 09:34:39;;;;;;;5.47;3.70;;;;;;;25.87;42.68;101731.19;3590155;39;20179;-63
2022/07/23 09:37:13;;;;;;;5.82;3.58;;;;;;;26.00;42.96;101749.94;3592698;39;20043;-63
2022/07/23 09:39:40;;;;;;;4.20;3.58;;;;;;;25.95;42.40;101757.88;3594187;39;20079;-63
2022/07/23 09:42:25;;;;;;;4.28;3.85;;;;;;;25.80;43.03;101748.56;3591266;39;20062;-63
2022/07/23 09:44:58;;;;;;;5.60;3.85;;;;;;;25.77;41.95;101755.25;3592045;39;20114;-64
2022/07/23 09:47:31;;;;;;;4.18;3.78;;;;;;;25.69;43.34;101752.53;3592153;39;20055;-64
2022/07/23 09:50:11;;;;;;;4.03;3.55;;;;;;;25.64;41.77;101711.72;3592347;39;20047;-63
2022/07/23 09:52:47;;;;;;;4.30;3.17;;;;;;;26.03;41.00;101749.59;3590487;39;20060;-64
2022/07/23 09:55:15;;;;;;;4.60;3.60;;;;;;;26.34;42.54;101754.38;3590564;39;20747;-65
2022/07/23 09:57:45;;;;;;;5.15;3.55;;;;;;;26.55;41.17;101759.34;3590386;39;20370;-63
2022/07/23 10:00:12;;;;;;;4.07;3.20;;;;;;;26.66;41.74;101749.81;3590877;39;20839;-64
2022/07/23 10:02:41;;;;;;;4.65;3.40;;;;;;;26.76;43.20;101753.22;3593944;39;20067;-64
2022/07/23 10:05:07;;;;;;;3.00;2.70;;;;;;;26.84;40.05;101759.59;3594544;39;20405;-64
2022/07/23 10:07:39;;;;;;;4.13;2.63;;;;;;;26.71;39.96;101753.78;3592950;39;20050;-63
2022/07/23 10:10:06;;;;;;;2.80;2.40;;;;;;;26.79;40.62;101747.34;3588883;39;20133;-64
2022/07/23 10:15:00;;;;;;;3.00;2.80;;;;;;;27.20;39.12;101753.56;3591887;39;20059;-64
2022/07/23 10:17:30;;;;;;;3.33;2.72;;;;;;;26.77;39.62;101647.38;3580993;39;20055;-64
2022/07/23 10:19:56;;;;;;;4.07;2.75;;;;;;;27.66;39.74;101759.13;3589010;39;20698;-64
2022/07/23 10:22:28;;;;;;;2.65;2.22;;;;;;;27.85;37.70;101755.03;3594141;39;20075;-65
2022/07/23 10:24:57;;;;;;;;;;;;;;;27.91;37.36;101757.03;3594348;39;20055;-65
2022/07/23 10:28:13;;;;;;;3.83;2.28;;;;;;;28.09;37.60;101751.16;3591047;39;20567;-64
2022/07/23 10:31:14;;;;;;;4.45;2.70;;;;;;;27.96;39.00;101754.56;3571350;39;20059;-64
2022/07/23 10:33:59;;;;;;;2.58;2.40;;;;;;;27.99;38.75;101748.66;3588712;39;20174;-64
2022/07/23 10:36:52;;;;;;;2.40;2.20;;;;;;;28.09;38.85;101759.44;3591773;39;20048;-64
2022/07/23 10:39:34;;;;;;;4.18;2.60;;;;;;;28.00;38.49;101753.16;3591416;39;20063;-65
2022/07/23 10:42:17;;;;;;;3.38;2.28;;;;;;;27.63;38.37;101686.81;3593621;39;20162;-65
2022/07/23 10:44:48;;;;;;;2.85;2.60;;;;;;;28.22;38.38;101748.59;3595244;39;20064;-65
2022/07/23 10:47:41;;;;;;;2.90;2.45;;;;;;;28.41;37.09;101744.44;3594002;39;20058;-64
2022/07/23 10:50:34;;;;;;;3.33;2.17;;;;;;;28.41;37.12;101744.44;3595963;39;20087;-66
2022/07/23 10:53:08;;;;;;;2.85;2.42;;;;;;;28.57;37.52;101751.72;3592283;39;20072;-65
2022/07/23 10:55:36;;;;;;;3.58;2.28;;;;;;;28.66;36.95;101747.78;3595311;39;20050;-65
2022/07/23 10:58:05;;;;;;;4.35;2.30;;;;;;;28.88;35.63;101747.88;3598881;39;20053;-64
2022/07/23 11:00:36;;;;;;;4.28;2.65;;;;;;;28.77;36.02;101752.00;3593734;39;20115;-65
2022/07/23 11:03:25;;;;;;;3.95;2.47;;;;;;;28.73;35.87;101747.88;3595565;39;20058;-65
2022/07/23 11:05:51;;;;;;;3.22;2.30;;;;;;;28.63;36.22;101747.31;3594019;39;20063;-65
2022/07/23 11:08:21;;;;;;;2.35;1.92;;;;;;;28.72;36.79;101743.41;3592029;39;20647;-65
2022/07/23 11:11:09;;;;;;;3.35;2.30;;;;;;;29.00;34.86;101746.31;3596795;39;20055;-65
2022/07/23 11:13:44;;;;;;;2.28;2.03;;;;;;;29.11;35.66;101745.84;3593472;39;20044;-65
2022/07/23 11:16:16;;;;;;;3.10;2.13;;;;;;;29.25;35.50;101744.09;3591939;39;20145;-67
2022/07/23 11:18:44;;;;;;;3.70;2.00;;;;;;;29.36;35.15;101746.34;3593813;39;20070;-65
2022/07/23 11:21:29;;;;;;;2.65;1.50;;;;;;;29.44;33.26;101744.53;3593570;39;20075;-64
2022/07/23 11:24:00;;;;;;;3.90;2.50;;;;;;;29.53;33.68;101741.41;3594661;39;20209;-64
2022/07/23 11:26:46;;;;;;;3.78;2.45;;;;;;;29.42;34.79;101739.16;3594666;39;20129;-67
2022/07/23 11:29:27;;;;;;;2.20;1.83;;;;;;;29.37;31.54;101736.16;3592869;39;20071;-64